.
WxDataArchive / Data Records for 2014-03-19
2014-03-18 March 2014 2014-03-20

Data Records for Wednesday, 19 March 2014

Time	Temp	Chill	HIndex	Humid	Dewpt	 Wind 	HiWind	WindDir	Rain 	Barom
-----	----	-----	------	-----	-----	------	------	-------	-----	-----
00:00	34.9	34.9	34.9	87	31.4	0	1	90	0.00	29.827 
00:05	34.7	34.7	34.7	87	31.2	0	0	---	0.00	29.827 
00:10	34.6	34.6	34.6	87	31.1	0	0	---	0.00	29.827 
00:15	34.6	34.6	34.6	87	31.1	0	1	90	0.00	29.851 
00:20	34.4	34.4	34.4	87	30.9	0	0	---	0.00	29.851 
00:25	34.1	34.1	34.1	87	30.6	0	0	---	0.00	29.851 
00:30	33.8	33.8	33.8	87	30.3	0	0	---	0.00	29.842 
00:35	33.5	33.5	33.5	88	30.3	0	0	---	0.00	29.842 
00:40	33.4	33.4	33.4	88	30.2	0	0	---	0.00	29.842 
00:45	33.5	33.5	33.5	88	30.3	0	0	---	0.00	29.838 
00:50	33.5	33.5	33.5	89	30.6	0	0	---	0.00	29.838 
00:55	33.8	33.8	33.8	89	30.9	0	1	90	0.00	29.838 
01:00	34.1	34.1	34.1	90	31.5	0	1	90	0.00	29.824 
01:05	34.7	34.7	34.7	90	32.1	0	2	90	0.00	29.824 
01:10	35.2	35.2	35.2	90	32.6	1	2	90	0.00	29.824 
01:15	35.5	35.5	35.5	89	32.6	1	3	90	0.00	29.808 
01:20	35.8	35.8	35.8	89	32.9	1	2	90	0.00	29.808 
01:25	35.9	35.9	35.9	89	33.0	0	2	90	0.00	29.808 
01:30	35.9	35.9	35.9	88	32.7	0	0	---	0.00	29.800 
01:35	36.0	36.0	36.0	88	32.8	0	1	90	0.00	29.800 
01:40	36.2	36.2	36.2	88	33.0	0	1	90	0.00	29.800 
01:45	36.5	36.5	36.5	88	33.3	1	4	90	0.00	29.790 
01:50	36.8	36.8	36.8	88	33.6	1	3	90	0.00	29.790 
01:55	36.9	36.9	36.9	87	33.4	0	2	90	0.00	29.790 
02:00	37.0	37.0	37.0	87	33.5	1	3	90	0.00	29.787 
02:05	37.0	37.0	37.0	86	33.2	2	4	90	0.00	29.787 
02:10	36.9	36.9	36.9	86	33.1	2	5	90	0.00	29.787 
02:15	36.8	36.8	36.8	86	33.0	1	5	90	0.00	29.780 
02:20	36.6	36.6	36.6	86	32.8	1	2	90	0.00	29.780 
02:25	36.5	36.5	36.5	86	32.7	1	3	90	0.00	29.780 
02:30	36.3	36.3	36.3	86	32.5	2	4	90	0.00	29.770 
02:35	36.3	36.3	36.3	86	32.5	0	0	---	0.00	29.770 
02:40	36.3	36.3	36.3	86	32.5	1	2	90	0.00	29.770 
02:45	36.3	36.3	36.3	86	32.5	1	2	90	0.00	29.766 
02:50	36.3	36.3	36.3	87	32.8	0	1	90	0.00	29.766 
02:55	36.3	36.3	36.3	87	32.8	0	0	---	0.00	29.766 
03:00	36.5	36.5	36.5	87	33.0	0	2	90	0.00	29.758 
03:05	36.6	36.6	36.6	87	33.1	1	2	90	0.00	29.758 
03:10	36.6	36.6	36.6	86	32.8	1	2	90	0.00	29.758 
03:15	36.6	36.6	36.6	87	33.1	1	2	90	0.00	29.752 
03:20	36.6	36.6	36.6	87	33.1	1	3	90	0.00	29.752 
03:25	36.6	36.6	36.6	87	33.1	1	2	90	0.00	29.752 
03:30	36.8	36.8	36.8	87	33.3	0	2	90	0.00	29.746 
03:35	36.9	36.9	36.9	87	33.4	1	2	90	0.00	29.746 
03:40	37.0	37.0	37.0	87	33.5	0	2	90	0.00	29.746 
03:45	37.2	37.2	37.2	88	34.0	0	2	90	0.00	29.736 
03:50	37.5	37.5	37.5	88	34.3	0	2	90	0.00	29.736 
03:55	37.8	37.8	37.8	88	34.6	1	3	90	0.00	29.736 
04:00	38.0	38.0	38.0	88	34.8	1	3	90	0.00	29.725 
04:05	38.2	38.2	38.2	88	35.0	1	2	90	0.00	29.725 
04:10	38.3	38.3	38.3	88	35.1	0	1	90	0.00	29.725 
04:15	38.3	38.3	38.3	88	35.1	0	1	90	0.00	29.719 
04:20	38.5	38.5	38.5	88	35.3	0	1	90	0.00	29.719 
04:25	38.8	38.8	38.8	88	35.6	0	1	90	0.00	29.719 
04:30	38.9	38.9	38.9	88	35.7	0	1	90	0.00	29.712 
04:35	39.1	39.1	39.1	88	35.9	0	1	90	0.00	29.712 
04:40	39.3	39.3	39.3	89	36.3	0	2	90	0.00	29.712 
04:45	39.6	39.6	39.6	89	36.6	0	1	90	0.00	29.715 
04:50	40.1	40.1	40.1	89	37.1	0	2	90	0.00	29.715 
04:55	40.3	40.3	40.3	89	37.3	0	1	90	0.00	29.715 
05:00	40.5	40.5	40.5	89	37.5	0	2	90	0.00	29.709 
05:05	40.8	40.8	40.8	89	37.8	0	2	90	0.00	29.709 
05:10	41.1	41.1	41.1	89	38.1	0	2	90	0.00	29.709 
05:15	41.2	41.2	41.2	89	38.2	0	1	90	0.00	29.701 
05:20	41.5	41.5	41.5	89	38.5	0	3	90	0.00	29.701 
05:25	41.8	41.8	41.8	89	38.8	1	3	135	0.00	29.701 
05:30	42.2	42.2	42.2	89	39.2	1	3	135	0.00	29.697 
05:35	42.6	42.6	42.6	88	39.3	0	2	135	0.00	29.697 
05:40	42.8	42.8	42.8	88	39.5	0	1	135	0.00	29.697 
05:45	42.9	42.9	42.9	88	39.6	1	3	135	0.00	29.699 
05:50	43.1	43.1	43.1	88	39.8	1	5	112	0.00	29.699 
05:55	43.3	43.3	43.3	88	40.0	1	4	112	0.00	29.699 
06:00	43.5	43.5	43.5	87	39.9	1	3	112	0.00	29.697 
06:05	43.6	43.6	43.6	87	40.0	1	5	112	0.00	29.697 
06:10	43.8	43.8	43.8	87	40.2	1	3	112	0.00	29.697 
06:15	43.9	43.9	43.9	87	40.3	1	3	112	0.00	29.689 
06:20	43.9	43.9	43.9	87	40.3	1	4	112	0.00	29.689 
06:25	44.1	44.1	44.1	87	40.5	1	3	112	0.00	29.689 
06:30	44.2	44.2	44.2	87	40.6	1	3	112	0.00	29.689 
06:35	44.3	44.3	44.3	87	40.7	1	3	90	0.01	29.689 
06:40	44.3	44.3	44.3	88	41.0	1	3	90	0.01	29.689 
06:45	44.3	44.3	44.3	88	41.0	2	4	112	0.02	29.682 
06:50	44.2	44.2	44.2	89	41.2	1	4	112	0.01	29.682 
06:55	44.2	44.2	44.2	89	41.2	2	7	90	0.00	29.682 
07:00	44.1	44.1	44.1	90	41.4	1	5	90	0.00	29.683 
07:05	44.1	44.1	44.1	90	41.4	1	3	90	0.00	29.683 
07:10	43.9	43.9	43.9	90	41.2	1	4	112	0.00	29.683 
07:15	43.9	43.9	43.9	91	41.4	1	4	112	0.01	29.686 
07:20	43.8	43.8	43.8	91	41.3	1	4	68	0.00	29.686 
07:25	43.8	43.8	43.8	91	41.3	1	5	90	0.00	29.686 
07:30	43.8	43.8	43.8	91	41.3	1	3	90	0.00	29.685 
07:35	43.8	43.8	43.8	91	41.3	0	2	90	0.00	29.685 
07:40	43.8	43.8	43.8	91	41.3	1	4	90	0.00	29.685 
07:45	43.8	43.8	43.8	91	41.3	1	4	112	0.00	29.682 
07:50	43.6	43.6	43.6	91	41.1	1	3	112	0.00	29.682 
07:55	43.6	43.6	43.6	91	41.1	0	4	112	0.00	29.682 
08:00	43.6	43.6	43.6	91	41.1	1	4	112	0.00	29.679 
08:05	43.6	43.6	43.6	91	41.1	1	5	90	0.00	29.679 
08:10	43.6	43.6	43.6	91	41.1	1	6	90	0.00	29.679 
08:15	43.8	43.8	43.8	91	41.3	0	2	22	0.00	29.677 
08:20	43.8	43.8	43.8	91	41.3	1	3	315	0.00	29.677 
08:25	43.8	43.8	43.8	91	41.3	1	3	270	0.00	29.677 
08:30	43.9	43.9	43.9	90	41.2	2	6	90	0.00	29.669 
08:35	44.1	44.1	44.1	90	41.4	1	6	90	0.00	29.669 
08:40	44.2	44.2	44.2	89	41.2	2	7	90	0.00	29.669 
08:45	44.2	44.2	44.2	89	41.2	1	5	68	0.00	29.662 
08:50	44.3	44.3	44.3	89	41.3	1	4	135	0.00	29.662 
08:55	44.3	44.3	44.3	88	41.0	1	4	90	0.00	29.662 
09:00	44.5	44.5	44.5	88	41.2	2	9	112	0.00	29.657 
09:05	44.6	44.6	44.6	88	41.3	1	4	315	0.00	29.657 
09:10	44.8	44.8	44.8	88	41.5	1	6	135	0.00	29.657 
09:15	44.8	44.8	44.8	88	41.5	1	6	248	0.00	29.661 
09:20	44.9	44.9	44.9	87	41.3	1	4	68	0.00	29.661 
09:25	45.1	45.1	45.1	87	41.5	2	7	90	0.00	29.661 
09:30	45.2	45.2	45.2	87	41.6	2	7	248	0.00	29.665 
09:35	45.4	45.4	45.4	86	41.5	1	5	248	0.00	29.665 
09:40	45.4	45.4	45.4	86	41.5	1	4	68	0.00	29.665 
09:45	45.5	45.5	45.5	86	41.6	1	4	292	0.00	29.666 
09:50	45.5	45.5	45.5	86	41.6	1	5	225	0.00	29.666 
09:55	45.5	45.5	45.5	86	41.6	1	5	248	0.00	29.666 
10:00	45.8	45.8	45.8	85	41.6	1	7	270	0.00	29.664 
10:05	46.0	46.0	46.0	85	41.7	1	5	68	0.00	29.664 
10:10	46.0	46.0	46.0	85	41.7	1	5	248	0.00	29.664 
10:15	46.1	46.1	46.1	85	41.8	1	6	248	0.00	29.663 
10:20	46.2	46.2	46.2	85	41.9	1	4	68	0.00	29.663 
10:25	46.2	46.2	46.2	85	41.9	1	5	90	0.00	29.663 
10:30	46.4	46.4	46.4	85	42.1	1	4	292	0.00	29.664 
10:35	46.5	46.5	46.5	85	42.2	1	5	248	0.00	29.664 
10:40	46.8	46.8	46.8	84	42.2	1	6	112	0.00	29.664 
10:45	47.0	47.0	47.0	84	42.4	1	5	248	0.00	29.656 
10:50	47.3	47.3	47.3	84	42.7	1	4	248	0.00	29.656 
10:55	47.6	47.6	47.6	84	43.0	2	5	248	0.00	29.656 
11:00	47.9	47.9	47.9	83	43.0	1	5	225	0.00	29.656 
11:05	48.0	48.0	48.0	83	43.1	1	2	248	0.00	29.656 
11:10	48.3	48.3	48.3	82	43.1	1	7	248	0.00	29.656 
11:15	48.6	48.6	48.6	82	43.4	1	3	248	0.00	29.658 
11:20	48.8	48.8	48.8	82	43.6	1	5	248	0.00	29.658 
11:25	48.8	48.8	48.8	82	43.6	1	5	90	0.00	29.658 
11:30	48.8	48.8	48.8	82	43.6	1	4	248	0.00	29.658 
11:35	48.8	48.8	48.8	83	43.9	1	4	248	0.00	29.658 
11:40	48.8	48.8	48.8	83	43.9	1	5	248	0.00	29.658 
11:45	48.8	48.8	48.8	83	43.9	1	4	68	0.00	29.642 
11:50	48.9	48.9	48.9	83	44.0	1	4	248	0.00	29.642 
11:55	49.2	49.2	49.2	83	44.3	1	3	248	0.00	29.642 
12:00	49.4	49.4	49.4	83	44.5	1	4	248	0.00	29.656 
12:05	49.4	49.4	49.4	82	44.1	1	6	248	0.00	29.656 
12:10	49.5	49.5	49.5	82	44.2	1	7	248	0.00	29.656 
12:15	49.8	49.8	49.8	82	44.5	2	7	248	0.00	29.653 
12:20	49.9	49.9	49.9	81	44.3	2	5	248	0.00	29.653 
12:25	50.1	50.1	50.1	81	44.5	1	4	225	0.00	29.653 
12:30	49.9	49.9	49.9	81	44.3	2	6	248	0.00	29.651 
12:35	49.9	49.9	49.9	81	44.3	2	10	248	0.00	29.651 
12:40	49.8	49.8	49.8	81	44.2	2	5	248	0.00	29.651 
12:45	49.8	49.8	49.8	81	44.2	1	5	248	0.00	29.647 
12:50	49.9	49.9	49.9	82	44.6	1	3	248	0.00	29.647 
12:55	50.1	50.1	50.1	82	44.8	1	4	225	0.00	29.647 
13:00	50.1	50.1	50.1	82	44.8	2	7	248	0.00	29.646 
13:05	50.1	50.1	50.1	81	44.5	1	7	248	0.00	29.646 
13:10	50.1	50.1	50.1	81	44.5	3	9	248	0.00	29.646 
13:15	50.4	50.4	50.4	80	44.5	2	11	248	0.00	29.643 
13:20	50.4	50.4	50.4	80	44.5	3	9	248	0.00	29.643 
13:25	50.4	50.4	50.4	80	44.5	2	7	248	0.00	29.643 
13:30	50.2	50.2	50.2	80	44.3	2	6	248	0.00	29.642 
13:35	50.1	50.1	50.1	81	44.5	2	6	248	0.00	29.642 
13:40	50.1	50.1	50.1	81	44.5	1	6	248	0.00	29.642 
13:45	49.9	49.9	49.9	81	44.3	2	6	248	0.00	29.646 
13:50	49.9	49.9	49.9	81	44.3	3	9	248	0.00	29.646 
13:55	49.9	49.9	49.9	80	44.0	3	8	248	0.00	29.646 
14:00	50.1	50.1	50.1	79	43.8	3	11	248	0.00	29.640 
14:05	50.4	50.4	50.4	78	43.8	3	7	248	0.00	29.640 
14:10	50.5	50.5	50.5	77	43.6	2	7	248	0.00	29.640 
14:15	50.8	50.8	50.8	77	43.9	1	3	248	0.00	29.639 
14:20	50.8	50.8	50.8	76	43.5	1	4	248	0.00	29.639 
14:25	51.0	51.0	51.0	76	43.7	2	5	248	0.00	29.639 
14:30	51.3	51.3	51.3	75	43.6	2	6	248	0.00	29.636 
14:35	51.6	51.6	51.6	75	43.9	2	6	248	0.00	29.636 
14:40	52.2	52.2	52.2	75	44.5	2	7	248	0.00	29.636 
14:45	52.3	52.3	52.3	72	43.5	4	15	248	0.00	29.637 
14:50	51.9	51.9	51.9	72	43.2	5	15	270	0.00	29.637 
14:55	51.3	51.3	51.3	73	42.9	5	12	248	0.00	29.637 
15:00	50.7	50.7	50.7	75	43.1	4	12	248	0.00	29.643 
15:05	50.1	50.1	50.1	77	43.2	3	11	248	0.00	29.643 
15:10	49.6	49.6	49.6	79	43.4	2	7	248	0.00	29.643 
15:15	49.4	49.4	49.4	80	43.5	3	8	248	0.00	29.651 
15:20	49.1	49.1	49.1	81	43.5	2	9	248	0.00	29.651 
15:25	48.8	48.8	48.8	82	43.6	3	9	270	0.00	29.651 
15:30	48.5	48.5	48.5	83	43.6	2	6	248	0.00	29.651 
15:35	48.3	48.3	48.3	84	43.7	2	4	248	0.00	29.651 
15:40	48.0	48.0	48.0	85	43.7	3	6	248	0.00	29.651 
15:45	47.7	47.7	47.7	86	43.7	2	6	270	0.00	29.655 
15:50	47.6	46.1	47.6	86	43.6	4	8	248	0.00	29.655 
15:55	47.6	47.6	47.6	86	43.6	3	7	248	0.00	29.655 
16:00	47.6	47.6	47.6	86	43.6	3	9	248	0.00	29.657 
16:05	47.6	47.6	47.6	86	43.6	3	6	248	0.00	29.657 
16:10	47.6	46.1	47.6	85	43.3	4	10	248	0.00	29.657 
16:15	47.6	47.6	47.6	85	43.3	3	7	270	0.00	29.667 
16:20	47.4	47.4	47.4	85	43.1	3	6	248	0.00	29.667 
16:25	47.4	45.9	47.4	84	42.8	4	9	248	0.00	29.667 
16:30	47.3	45.8	47.3	85	43.0	4	9	248	0.00	29.671 
16:35	47.1	44.8	47.1	85	42.8	5	8	270	0.00	29.671 
16:40	46.8	46.8	46.8	85	42.5	2	6	248	0.00	29.671 
16:45	46.4	43.4	46.4	86	42.4	6	16	270	0.00	29.685 
16:50	45.8	43.3	45.8	86	41.9	5	12	248	0.00	29.685 
16:55	45.4	43.6	45.4	86	41.5	4	8	248	0.00	29.685 
17:00	44.9	44.9	44.9	87	41.3	3	8	248	0.00	29.689 
17:05	44.6	42.6	44.6	87	41.0	4	10	270	0.00	29.689 
17:10	44.3	44.3	44.3	88	41.0	3	9	248	0.00	29.689 
17:15	44.1	42.1	44.1	88	40.8	4	10	248	0.00	29.700 
17:20	43.6	40.7	43.6	88	40.3	5	11	248	0.00	29.700 
17:25	43.6	41.5	43.6	88	40.3	4	7	270	0.00	29.700 
17:30	43.3	41.1	43.3	88	40.0	4	6	270	0.00	29.708 
17:35	43.1	40.1	43.1	88	39.8	5	10	270	0.00	29.708 
17:40	42.8	40.6	42.8	88	39.5	4	7	270	0.00	29.708 
17:45	42.6	42.6	42.6	89	39.6	3	7	248	0.00	29.719 
17:50	42.5	42.5	42.5	89	39.5	3	9	270	0.00	29.719 
17:55	42.2	39.1	42.2	89	39.2	5	12	248	0.00	29.719 
18:00	41.9	39.5	41.9	89	38.9	4	7	270	0.00	29.733 
18:05	41.8	41.8	41.8	89	38.8	3	10	248	0.00	29.733 
18:10	41.6	39.2	41.6	89	38.6	4	9	248	0.00	29.733 
18:15	41.3	41.3	41.3	89	38.3	3	9	248	0.00	29.751 
18:20	41.2	41.2	41.2	90	38.5	3	9	248	0.01	29.751 
18:25	40.9	40.9	40.9	90	38.2	3	10	248	0.00	29.751 
18:30	40.8	40.8	40.8	91	38.4	3	10	270	0.00	29.766 
18:35	40.6	40.6	40.6	91	38.2	2	7	270	0.00	29.766 
18:40	40.5	37.9	40.5	91	38.1	4	9	270	0.00	29.766 
18:45	40.3	40.3	40.3	91	37.9	3	6	292	0.00	29.777 
18:50	40.2	40.2	40.2	91	37.8	3	5	270	0.00	29.777 
18:55	40.1	40.1	40.1	92	38.0	3	9	270	0.00	29.777 
19:00	39.9	39.9	39.9	92	37.8	2	6	270	0.00	29.792 
19:05	39.6	39.6	39.6	92	37.5	3	7	270	0.00	29.792 
19:10	39.5	39.5	39.5	92	37.4	3	6	248	0.00	29.792 
19:15	39.3	39.3	39.3	92	37.2	3	7	270	0.00	29.806 
19:20	39.1	39.1	39.1	92	37.0	3	9	248	0.00	29.806 
19:25	38.9	38.9	38.9	92	36.8	3	7	270	0.00	29.806 
19:30	38.8	35.9	38.8	92	36.7	4	10	270	0.00	29.817 
19:35	38.6	38.6	38.6	92	36.5	3	9	248	0.00	29.817 
19:40	38.5	38.5	38.5	92	36.4	3	7	270	0.00	29.817 
19:45	38.5	35.6	38.5	92	36.4	4	9	270	0.00	29.832 
19:50	38.5	38.5	38.5	92	36.4	3	7	270	0.00	29.832 
19:55	38.5	38.5	38.5	92	36.4	3	7	270	0.00	29.832 
20:00	38.5	35.6	38.5	91	36.1	4	10	270	0.00	29.846 
20:05	38.5	35.6	38.5	90	35.8	4	10	270	0.00	29.846 
20:10	38.5	38.5	38.5	90	35.8	3	6	270	0.00	29.846 
20:15	38.3	38.3	38.3	89	35.3	3	9	270	0.00	29.848 
20:20	38.3	38.3	38.3	89	35.3	3	5	270	0.00	29.848 
20:25	38.2	38.2	38.2	89	35.2	3	6	270	0.00	29.848 
20:30	38.2	38.2	38.2	89	35.2	3	5	270	0.00	29.855 
20:35	38.2	38.2	38.2	88	35.0	3	5	270	0.00	29.855 
20:40	38.2	38.2	38.2	88	35.0	2	5	270	0.00	29.855 
20:45	38.2	38.2	38.2	88	35.0	3	9	270	0.00	29.863 
20:50	38.2	35.2	38.2	88	35.0	4	6	270	0.00	29.863 
20:55	38.2	38.2	38.2	87	34.7	3	5	270	0.00	29.863 
21:00	38.2	38.2	38.2	87	34.7	2	5	270	0.00	29.868 
21:05	38.3	38.3	38.3	86	34.5	2	5	270	0.00	29.868 
21:10	38.2	38.2	38.2	86	34.4	2	5	248	0.00	29.868 
21:15	38.2	38.2	38.2	86	34.4	1	3	248	0.00	29.873 
21:20	38.2	38.2	38.2	86	34.4	2	4	270	0.00	29.873 
21:25	38.2	38.2	38.2	86	34.4	2	5	248	0.00	29.873 
21:30	38.2	38.2	38.2	85	34.1	3	6	270	0.00	29.879 
21:35	38.2	38.2	38.2	85	34.1	3	5	248	0.00	29.879 
21:40	38.2	38.2	38.2	85	34.1	3	5	248	0.00	29.879 
21:45	38.3	38.3	38.3	84	33.9	2	5	248	0.00	29.878 
21:50	38.2	38.2	38.2	84	33.8	1	5	248	0.00	29.878 
21:55	38.2	38.2	38.2	84	33.8	2	5	248	0.00	29.878 
22:00	38.2	38.2	38.2	84	33.8	2	4	270	0.00	29.881 
22:05	38.2	38.2	38.2	84	33.8	2	4	270	0.00	29.881 
22:10	38.2	38.2	38.2	84	33.8	2	4	270	0.00	29.881 
22:15	38.0	38.0	38.0	84	33.6	2	9	248	0.00	29.888 
22:20	37.9	37.9	37.9	85	33.8	2	5	270	0.00	29.888 
22:25	37.6	37.6	37.6	86	33.8	2	4	248	0.00	29.888 
22:30	37.5	37.5	37.5	86	33.7	1	4	248	0.00	29.892 
22:35	37.3	37.3	37.3	87	33.8	2	4	270	0.00	29.892 
22:40	37.2	37.2	37.2	87	33.7	3	7	248	0.00	29.892 
22:45	36.8	33.6	36.8	84	32.4	4	9	248	0.00	29.899 
22:50	36.5	33.3	36.5	87	33.0	4	10	248	0.00	29.899 
22:55	36.2	32.9	36.2	87	32.7	4	11	248	0.00	29.899 
23:00	36.0	36.0	36.0	87	32.5	3	6	270	0.00	29.907 
23:05	35.9	35.9	35.9	88	32.7	3	7	248	0.00	29.907 
23:10	35.8	35.8	35.8	88	32.6	2	6	248	0.00	29.907 
23:15	35.8	35.8	35.8	88	32.6	3	6	248	0.00	29.910 
23:20	35.6	35.6	35.6	88	32.4	3	9	248	0.00	29.910 
23:25	35.6	35.6	35.6	87	32.1	2	7	248	0.00	29.910 
23:30	35.6	35.6	35.6	87	32.1	2	7	248	0.00	29.911 
23:35	35.6	35.6	35.6	87	32.1	3	6	248	0.00	29.911 
23:40	35.6	32.2	35.6	87	32.1	4	11	248	0.00	29.911 
23:45	35.6	35.6	35.6	86	31.8	2	7	248	0.00	29.919 
23:50	35.6	35.6	35.6	86	31.8	3	5	248	0.00	29.919 
23:55	35.6	35.6	35.6	86	31.8	2	5	270	0.00	29.919 

CoCoRaHS
IN-AL-39
A2 Web Hosting
Creative Commons License
GoDaddy
search engine by freefind advanced

loaded 2018-11-17 23:16:54 • last modified 2010-11-18 10:43:29
Privacy PolicyDisclaimer
• wx.awcolley.com is powered by PmWiki v.2002016 •
• all content (unless otherwise noted) © 2018 A W Colley